sensor_id;sensor_type;location;lat;lon;timestamp;P1;durP1;ratioP1;P2;durP2;ratioP2
77701;SDS011;66868;42.708;23.404;2023-03-04T00:00:25;18.57;;;12.83;;
77701;SDS011;66868;42.708;23.404;2023-03-04T00:02:50;23.20;;;13.87;;
77701;SDS011;66868;42.708;23.404;2023-03-04T00:05:16;22.07;;;14.10;;
77701;SDS011;66868;42.708;23.404;2023-03-04T00:07:41;20.03;;;14.80;;
77701;SDS011;66868;42.708;23.404;2023-03-04T00:10:07;22.53;;;13.87;;
77701;SDS011;66868;42.708;23.404;2023-03-04T00:12:33;20.90;;;14.70;;
77701;SDS011;66868;42.708;23.404;2023-03-04T00:14:58;22.93;;;14.70;;
77701;SDS011;66868;42.708;23.404;2023-03-04T00:17:23;22.73;;;13.80;;
77701;SDS011;66868;42.708;23.404;2023-03-04T00:19:49;18.63;;;13.03;;
77701;SDS011;66868;42.708;23.404;2023-03-04T00:22:17;20.83;;;13.13;;
77701;SDS011;66868;42.708;23.404;2023-03-04T00:24:55;19.73;;;12.57;;
77701;SDS011;66868;42.708;23.404;2023-03-04T00:27:30;19.57;;;12.33;;
77701;SDS011;66868;42.708;23.404;2023-03-04T00:29:55;21.53;;;12.70;;
77701;SDS011;66868;42.708;23.404;2023-03-04T00:32:21;21.17;;;12.40;;
77701;SDS011;66868;42.708;23.404;2023-03-04T00:34:47;19.97;;;13.20;;
77701;SDS011;66868;42.708;23.404;2023-03-04T00:37:12;21.47;;;14.13;;
77701;SDS011;66868;42.708;23.404;2023-03-04T00:39:37;18.57;;;13.47;;
77701;SDS011;66868;42.708;23.404;2023-03-04T00:42:03;22.90;;;13.93;;
77701;SDS011;66868;42.708;23.404;2023-03-04T00:44:28;21.47;;;14.20;;
77701;SDS011;66868;42.708;23.404;2023-03-04T00:46:54;22.43;;;14.00;;
77701;SDS011;66868;42.708;23.404;2023-03-04T00:49:19;22.23;;;13.93;;
77701;SDS011;66868;42.708;23.404;2023-03-04T00:51:45;23.83;;;14.90;;
77701;SDS011;66868;42.708;23.404;2023-03-04T00:54:10;20.77;;;14.10;;
77701;SDS011;66868;42.708;23.404;2023-03-04T00:56:35;26.87;;;15.90;;
77701;SDS011;66868;42.708;23.404;2023-03-04T00:59:01;25.03;;;15.63;;
77701;SDS011;66868;42.708;23.404;2023-03-04T01:01:26;24.53;;;15.43;;
77701;SDS011;66868;42.708;23.404;2023-03-04T01:03:52;26.80;;;16.00;;
77701;SDS011;66868;42.708;23.404;2023-03-04T01:06:17;24.43;;;15.43;;
77701;SDS011;66868;42.708;23.404;2023-03-04T01:08:43;23.93;;;14.43;;
77701;SDS011;66868;42.708;23.404;2023-03-04T01:11:08;21.97;;;14.63;;
77701;SDS011;66868;42.708;23.404;2023-03-04T01:13:34;21.00;;;14.03;;
77701;SDS011;66868;42.708;23.404;2023-03-04T01:15:59;21.27;;;13.97;;
77701;SDS011;66868;42.708;23.404;2023-03-04T01:18:25;23.10;;;14.63;;
77701;SDS011;66868;42.708;23.404;2023-03-04T01:20:50;24.37;;;15.30;;
77701;SDS011;66868;42.708;23.404;2023-03-04T01:23:16;24.00;;;14.53;;
77701;SDS011;66868;42.708;23.404;2023-03-04T01:25:41;26.83;;;15.80;;
77701;SDS011;66868;42.708;23.404;2023-03-04T01:28:07;27.73;;;15.73;;
77701;SDS011;66868;42.708;23.404;2023-03-04T01:30:32;25.60;;;16.57;;
77701;SDS011;66868;42.708;23.404;2023-03-04T01:32:57;26.17;;;16.73;;
77701;SDS011;66868;42.708;23.404;2023-03-04T01:35:23;26.87;;;17.03;;
77701;SDS011;66868;42.708;23.404;2023-03-04T01:37:48;25.07;;;16.27;;
77701;SDS011;66868;42.708;23.404;2023-03-04T01:40:14;26.63;;;16.40;;
77701;SDS011;66868;42.708;23.404;2023-03-04T01:42:39;29.10;;;17.30;;
77701;SDS011;66868;42.708;23.404;2023-03-04T01:45:05;25.67;;;16.57;;
77701;SDS011;66868;42.708;23.404;2023-03-04T01:47:32;29.00;;;16.17;;
77701;SDS011;66868;42.708;23.404;2023-03-04T01:50:00;24.17;;;16.30;;
77701;SDS011;66868;42.708;23.404;2023-03-04T01:52:28;26.33;;;16.43;;
77701;SDS011;66868;42.708;23.404;2023-03-04T01:54:54;29.63;;;18.07;;
77701;SDS011;66868;42.708;23.404;2023-03-04T01:57:20;27.53;;;17.43;;
77701;SDS011;66868;42.708;23.404;2023-03-04T02:00:09;26.10;;;16.20;;
77701;SDS011;66868;42.708;23.404;2023-03-04T02:02:39;29.30;;;17.43;;
77701;SDS011;66868;42.708;23.404;2023-03-04T02:05:05;28.20;;;17.97;;
77701;SDS011;66868;42.708;23.404;2023-03-04T02:07:30;25.57;;;16.30;;
77701;SDS011;66868;42.708;23.404;2023-03-04T02:09:56;27.70;;;16.63;;
77701;SDS011;66868;42.708;23.404;2023-03-04T02:12:21;26.97;;;16.70;;
77701;SDS011;66868;42.708;23.404;2023-03-04T02:14:46;27.57;;;16.30;;
77701;SDS011;66868;42.708;23.404;2023-03-04T02:17:12;24.03;;;16.33;;
77701;SDS011;66868;42.708;23.404;2023-03-04T02:19:41;25.30;;;16.83;;
77701;SDS011;66868;42.708;23.404;2023-03-04T02:22:15;27.00;;;16.83;;
77701;SDS011;66868;42.708;23.404;2023-03-04T02:24:45;24.57;;;16.00;;
77701;SDS011;66868;42.708;23.404;2023-03-04T02:27:17;24.00;;;15.47;;
77701;SDS011;66868;42.708;23.404;2023-03-04T02:29:42;19.30;;;13.73;;
77701;SDS011;66868;42.708;23.404;2023-03-04T02:32:09;25.77;;;15.10;;
77701;SDS011;66868;42.708;23.404;2023-03-04T02:34:37;21.57;;;15.03;;
77701;SDS011;66868;42.708;23.404;2023-03-04T02:37:06;20.90;;;14.40;;
77701;SDS011;66868;42.708;23.404;2023-03-04T02:39:35;22.03;;;14.10;;
77701;SDS011;66868;42.708;23.404;2023-03-04T02:42:05;23.13;;;15.30;;
77701;SDS011;66868;42.708;23.404;2023-03-04T02:44:34;29.23;;;17.63;;
77701;SDS011;66868;42.708;23.404;2023-03-04T02:47:03;27.23;;;17.77;;
77701;SDS011;66868;42.708;23.404;2023-03-04T02:49:30;29.00;;;16.80;;
77701;SDS011;66868;42.708;23.404;2023-03-04T02:52:01;27.37;;;16.03;;
77701;SDS011;66868;42.708;23.404;2023-03-04T02:54:29;27.13;;;17.17;;
77701;SDS011;66868;42.708;23.404;2023-03-04T02:56:57;23.53;;;15.73;;
77701;SDS011;66868;42.708;23.404;2023-03-04T02:59:24;23.93;;;16.23;;
77701;SDS011;66868;42.708;23.404;2023-03-04T03:01:49;26.73;;;17.07;;
77701;SDS011;66868;42.708;23.404;2023-03-04T03:04:15;30.93;;;17.20;;
77701;SDS011;66868;42.708;23.404;2023-03-04T03:06:41;29.67;;;17.37;;
77701;SDS011;66868;42.708;23.404;2023-03-04T03:09:06;25.80;;;16.77;;
77701;SDS011;66868;42.708;23.404;2023-03-04T03:11:32;27.37;;;16.77;;
77701;SDS011;66868;42.708;23.404;2023-03-04T03:13:58;27.90;;;17.47;;
77701;SDS011;66868;42.708;23.404;2023-03-04T03:16:23;25.87;;;16.70;;
77701;SDS011;66868;42.708;23.404;2023-03-04T03:18:49;24.67;;;15.80;;
77701;SDS011;66868;42.708;23.404;2023-03-04T03:21:15;24.47;;;16.27;;
77701;SDS011;66868;42.708;23.404;2023-03-04T03:23:40;26.38;;;16.20;;
77701;SDS011;66868;42.708;23.404;2023-03-04T03:26:05;27.23;;;16.53;;
77701;SDS011;66868;42.708;23.404;2023-03-04T03:28:31;23.53;;;15.03;;
77701;SDS011;66868;42.708;23.404;2023-03-04T03:30:56;24.03;;;15.30;;
77701;SDS011;66868;42.708;23.404;2023-03-04T03:33:22;21.83;;;14.10;;
77701;SDS011;66868;42.708;23.404;2023-03-04T03:35:48;27.23;;;17.17;;
77701;SDS011;66868;42.708;23.404;2023-03-04T03:38:13;27.17;;;17.77;;
77701;SDS011;66868;42.708;23.404;2023-03-04T03:40:39;28.67;;;17.83;;
77701;SDS011;66868;42.708;23.404;2023-03-04T03:43:04;23.90;;;16.33;;
77701;SDS011;66868;42.708;23.404;2023-03-04T03:45:30;22.60;;;15.87;;
77701;SDS011;66868;42.708;23.404;2023-03-04T03:47:55;22.73;;;15.23;;
77701;SDS011;66868;42.708;23.404;2023-03-04T03:50:21;25.50;;;16.60;;
77701;SDS011;66868;42.708;23.404;2023-03-04T03:52:46;22.10;;;15.37;;
77701;SDS011;66868;42.708;23.404;2023-03-04T03:55:12;30.63;;;18.57;;
77701;SDS011;66868;42.708;23.404;2023-03-04T03:57:37;25.77;;;16.93;;
77701;SDS011;66868;42.708;23.404;2023-03-04T04:00:03;24.90;;;17.03;;
77701;SDS011;66868;42.708;23.404;2023-03-04T04:02:30;28.03;;;16.53;;
77701;SDS011;66868;42.708;23.404;2023-03-04T04:04:56;25.53;;;15.60;;
77701;SDS011;66868;42.708;23.404;2023-03-04T04:07:21;30.60;;;16.77;;
77701;SDS011;66868;42.708;23.404;2023-03-04T04:09:46;30.30;;;16.87;;
77701;SDS011;66868;42.708;23.404;2023-03-04T04:12:13;30.10;;;18.67;;
77701;SDS011;66868;42.708;23.404;2023-03-04T04:14:40;28.03;;;16.83;;
77701;SDS011;66868;42.708;23.404;2023-03-04T04:17:07;24.27;;;14.90;;
77701;SDS011;66868;42.708;23.404;2023-03-04T04:19:32;25.60;;;16.47;;
77701;SDS011;66868;42.708;23.404;2023-03-04T04:21:58;25.70;;;16.13;;
77701;SDS011;66868;42.708;23.404;2023-03-04T04:24:23;32.70;;;17.77;;
77701;SDS011;66868;42.708;23.404;2023-03-04T04:26:48;34.97;;;17.47;;
77701;SDS011;66868;42.708;23.404;2023-03-04T04:29:17;26.47;;;16.00;;
77701;SDS011;66868;42.708;23.404;2023-03-04T04:31:48;25.47;;;16.20;;
77701;SDS011;66868;42.708;23.404;2023-03-04T04:34:14;28.27;;;17.30;;
77701;SDS011;66868;42.708;23.404;2023-03-04T04:36:39;28.10;;;16.93;;
77701;SDS011;66868;42.708;23.404;2023-03-04T04:39:05;25.37;;;15.90;;
77701;SDS011;66868;42.708;23.404;2023-03-04T04:41:32;30.30;;;18.13;;
77701;SDS011;66868;42.708;23.404;2023-03-04T04:44:03;32.00;;;18.07;;
77701;SDS011;66868;42.708;23.404;2023-03-04T04:46:28;30.97;;;17.63;;
77701;SDS011;66868;42.708;23.404;2023-03-04T04:48:54;35.60;;;19.50;;
77701;SDS011;66868;42.708;23.404;2023-03-04T04:51:19;34.27;;;19.63;;
77701;SDS011;66868;42.708;23.404;2023-03-04T04:53:45;38.53;;;19.67;;
77701;SDS011;66868;42.708;23.404;2023-03-04T04:56:12;32.23;;;18.33;;
77701;SDS011;66868;42.708;23.404;2023-03-04T04:58:40;34.47;;;18.47;;
77701;SDS011;66868;42.708;23.404;2023-03-04T05:01:05;31.23;;;19.20;;
77701;SDS011;66868;42.708;23.404;2023-03-04T05:03:32;36.20;;;19.50;;
77701;SDS011;66868;42.708;23.404;2023-03-04T05:05:58;37.30;;;19.70;;
77701;SDS011;66868;42.708;23.404;2023-03-04T05:08:23;37.07;;;20.40;;
77701;SDS011;66868;42.708;23.404;2023-03-04T05:10:48;34.30;;;20.10;;
77701;SDS011;66868;42.708;23.404;2023-03-04T05:13:14;40.20;;;24.10;;
77701;SDS011;66868;42.708;23.404;2023-03-04T05:15:39;43.33;;;25.20;;
77701;SDS011;66868;42.708;23.404;2023-03-04T05:18:04;46.87;;;28.17;;
77701;SDS011;66868;42.708;23.404;2023-03-04T05:20:30;36.17;;;23.03;;
77701;SDS011;66868;42.708;23.404;2023-03-04T05:22:56;32.33;;;20.40;;
77701;SDS011;66868;42.708;23.404;2023-03-04T05:25:21;30.60;;;19.60;;
77701;SDS011;66868;42.708;23.404;2023-03-04T05:27:46;36.43;;;20.00;;
77701;SDS011;66868;42.708;23.404;2023-03-04T05:30:12;30.23;;;18.97;;
77701;SDS011;66868;42.708;23.404;2023-03-04T05:32:37;31.43;;;18.93;;
77701;SDS011;66868;42.708;23.404;2023-03-04T05:35:03;29.97;;;17.83;;
77701;SDS011;66868;42.708;23.404;2023-03-04T05:37:29;25.10;;;16.20;;
77701;SDS011;66868;42.708;23.404;2023-03-04T05:39:54;25.13;;;17.27;;
77701;SDS011;66868;42.708;23.404;2023-03-04T05:42:20;24.00;;;16.53;;
77701;SDS011;66868;42.708;23.404;2023-03-04T05:44:45;28.27;;;17.73;;
77701;SDS011;66868;42.708;23.404;2023-03-04T05:47:11;27.30;;;16.02;;
77701;SDS011;66868;42.708;23.404;2023-03-04T05:49:36;32.10;;;19.77;;
77701;SDS011;66868;42.708;23.404;2023-03-04T05:52:01;28.73;;;17.97;;
77701;SDS011;66868;42.708;23.404;2023-03-04T05:54:27;30.33;;;18.00;;
77701;SDS011;66868;42.708;23.404;2023-03-04T05:56:52;28.00;;;17.42;;
77701;SDS011;66868;42.708;23.404;2023-03-04T05:59:18;33.53;;;17.70;;
77701;SDS011;66868;42.708;23.404;2023-03-04T06:01:45;28.77;;;18.33;;
77701;SDS011;66868;42.708;23.404;2023-03-04T06:04:11;33.10;;;19.87;;
77701;SDS011;66868;42.708;23.404;2023-03-04T06:06:36;30.03;;;19.47;;
77701;SDS011;66868;42.708;23.404;2023-03-04T06:09:02;27.30;;;18.20;;
77701;SDS011;66868;42.708;23.404;2023-03-04T06:11:28;24.92;;;17.58;;
77701;SDS011;66868;42.708;23.404;2023-03-04T06:13:54;25.02;;;17.17;;
77701;SDS011;66868;42.708;23.404;2023-03-04T06:16:19;23.63;;;17.10;;
77701;SDS011;66868;42.708;23.404;2023-03-04T06:18:45;28.33;;;17.70;;
77701;SDS011;66868;42.708;23.404;2023-03-04T06:21:10;23.23;;;16.20;;
77701;SDS011;66868;42.708;23.404;2023-03-04T06:23:36;23.15;;;15.70;;
77701;SDS011;66868;42.708;23.404;2023-03-04T06:26:01;26.90;;;17.00;;
77701;SDS011;66868;42.708;23.404;2023-03-04T06:28:27;30.42;;;16.95;;
77701;SDS011;66868;42.708;23.404;2023-03-04T06:30:53;22.58;;;15.73;;
77701;SDS011;66868;42.708;23.404;2023-03-04T06:33:20;25.02;;;15.48;;
77701;SDS011;66868;42.708;23.404;2023-03-04T06:35:45;28.17;;;17.15;;
77701;SDS011;66868;42.708;23.404;2023-03-04T06:38:11;25.98;;;16.90;;
77701;SDS011;66868;42.708;23.404;2023-03-04T06:40:37;32.95;;;18.85;;
77701;SDS011;66868;42.708;23.404;2023-03-04T06:43:02;34.75;;;20.48;;
77701;SDS011;66868;42.708;23.404;2023-03-04T06:45:27;34.40;;;20.52;;
77701;SDS011;66868;42.708;23.404;2023-03-04T06:47:53;36.23;;;21.87;;
77701;SDS011;66868;42.708;23.404;2023-03-04T06:50:18;37.40;;;21.65;;
77701;SDS011;66868;42.708;23.404;2023-03-04T06:52:44;26.83;;;16.38;;
77701;SDS011;66868;42.708;23.404;2023-03-04T06:55:09;29.17;;;16.43;;
77701;SDS011;66868;42.708;23.404;2023-03-04T06:57:34;22.15;;;15.25;;
77701;SDS011;66868;42.708;23.404;2023-03-04T07:00:00;20.92;;;15.13;;
77701;SDS011;66868;42.708;23.404;2023-03-04T07:02:27;28.73;;;15.25;;
77701;SDS011;66868;42.708;23.404;2023-03-04T07:04:53;23.27;;;14.73;;
77701;SDS011;66868;42.708;23.404;2023-03-04T07:07:18;33.33;;;16.00;;
77701;SDS011;66868;42.708;23.404;2023-03-04T07:09:43;23.80;;;14.40;;
77701;SDS011;66868;42.708;23.404;2023-03-04T07:12:09;27.63;;;16.83;;
77701;SDS011;66868;42.708;23.404;2023-03-04T07:14:34;18.55;;;13.27;;
77701;SDS011;66868;42.708;23.404;2023-03-04T07:17:00;18.05;;;13.35;;
77701;SDS011;66868;42.708;23.404;2023-03-04T07:19:25;20.23;;;13.93;;
77701;SDS011;66868;42.708;23.404;2023-03-04T07:21:50;24.55;;;16.83;;
77701;SDS011;66868;42.708;23.404;2023-03-04T07:24:16;27.63;;;16.42;;
77701;SDS011;66868;42.708;23.404;2023-03-04T07:26:41;22.88;;;14.85;;
77701;SDS011;66868;42.708;23.404;2023-03-04T07:29:06;20.85;;;14.23;;
77701;SDS011;66868;42.708;23.404;2023-03-04T07:31:33;21.38;;;14.35;;
77701;SDS011;66868;42.708;23.404;2023-03-04T07:34:00;23.02;;;15.45;;
77701;SDS011;66868;42.708;23.404;2023-03-04T07:36:27;29.60;;;15.98;;
77701;SDS011;66868;42.708;23.404;2023-03-04T07:38:53;20.20;;;13.77;;
77701;SDS011;66868;42.708;23.404;2023-03-04T07:41:19;18.35;;;12.70;;
77701;SDS011;66868;42.708;23.404;2023-03-04T07:43:47;23.52;;;14.80;;
77701;SDS011;66868;42.708;23.404;2023-03-04T07:46:13;24.80;;;15.32;;
77701;SDS011;66868;42.708;23.404;2023-03-04T07:48:39;17.30;;;13.23;;
77701;SDS011;66868;42.708;23.404;2023-03-04T07:53:45;24.27;;;13.52;;
77701;SDS011;66868;42.708;23.404;2023-03-04T07:56:12;24.23;;;14.50;;
77701;SDS011;66868;42.708;23.404;2023-03-04T07:58:41;27.30;;;15.57;;
77701;SDS011;66868;42.708;23.404;2023-03-04T08:01:08;21.95;;;14.60;;
77701;SDS011;66868;42.708;23.404;2023-03-04T08:03:41;22.88;;;13.57;;
77701;SDS011;66868;42.708;23.404;2023-03-04T08:06:07;21.73;;;13.95;;
77701;SDS011;66868;42.708;23.404;2023-03-04T08:08:34;20.90;;;14.35;;
77701;SDS011;66868;42.708;23.404;2023-03-04T08:11:03;19.02;;;13.20;;
77701;SDS011;66868;42.708;23.404;2023-03-04T08:13:32;20.55;;;13.38;;
77701;SDS011;66868;42.708;23.404;2023-03-04T08:15:58;18.25;;;12.80;;
77701;SDS011;66868;42.708;23.404;2023-03-04T08:18:24;21.60;;;14.30;;
77701;SDS011;66868;42.708;23.404;2023-03-04T08:20:49;20.80;;;15.02;;
77701;SDS011;66868;42.708;23.404;2023-03-04T08:23:15;21.95;;;13.85;;
77701;SDS011;66868;42.708;23.404;2023-03-04T08:25:40;21.63;;;13.35;;
77701;SDS011;66868;42.708;23.404;2023-03-04T08:28:06;19.52;;;13.93;;
77701;SDS011;66868;42.708;23.404;2023-03-04T08:30:33;18.58;;;11.45;;
77701;SDS011;66868;42.708;23.404;2023-03-04T08:33:00;23.38;;;15.15;;
77701;SDS011;66868;42.708;23.404;2023-03-04T08:35:26;16.30;;;12.32;;
77701;SDS011;66868;42.708;23.404;2023-03-04T08:37:51;23.77;;;13.27;;
77701;SDS011;66868;42.708;23.404;2023-03-04T08:40:17;22.60;;;14.20;;
77701;SDS011;66868;42.708;23.404;2023-03-04T08:42:42;27.67;;;13.15;;
77701;SDS011;66868;42.708;23.404;2023-03-04T08:45:08;22.00;;;14.18;;
77701;SDS011;66868;42.708;23.404;2023-03-04T08:47:34;19.05;;;13.02;;
77701;SDS011;66868;42.708;23.404;2023-03-04T08:50:00;26.98;;;15.00;;
77701;SDS011;66868;42.708;23.404;2023-03-04T08:52:25;21.35;;;12.35;;
77701;SDS011;66868;42.708;23.404;2023-03-04T08:54:54;23.00;;;12.63;;
77701;SDS011;66868;42.708;23.404;2023-03-04T08:57:19;20.35;;;13.23;;
77701;SDS011;66868;42.708;23.404;2023-03-04T08:59:44;22.13;;;14.15;;
77701;SDS011;66868;42.708;23.404;2023-03-04T09:02:10;22.17;;;11.43;;
77701;SDS011;66868;42.708;23.404;2023-03-04T09:04:35;19.88;;;11.60;;
77701;SDS011;66868;42.708;23.404;2023-03-04T09:07:01;17.45;;;11.48;;
77701;SDS011;66868;42.708;23.404;2023-03-04T09:09:27;24.00;;;12.10;;
77701;SDS011;66868;42.708;23.404;2023-03-04T09:11:52;32.55;;;18.45;;
77701;SDS011;66868;42.708;23.404;2023-03-04T09:14:17;31.90;;;18.73;;
77701;SDS011;66868;42.708;23.404;2023-03-04T09:16:43;26.83;;;15.18;;
77701;SDS011;66868;42.708;23.404;2023-03-04T09:19:09;23.05;;;13.32;;
77701;SDS011;66868;42.708;23.404;2023-03-04T09:21:34;22.20;;;13.38;;
77701;SDS011;66868;42.708;23.404;2023-03-04T09:24:00;16.75;;;11.20;;
77701;SDS011;66868;42.708;23.404;2023-03-04T09:26:26;24.38;;;12.07;;
77701;SDS011;66868;42.708;23.404;2023-03-04T09:28:53;20.05;;;12.10;;
77701;SDS011;66868;42.708;23.404;2023-03-04T09:31:21;16.90;;;11.52;;
77701;SDS011;66868;42.708;23.404;2023-03-04T09:33:47;20.38;;;12.77;;
77701;SDS011;66868;42.708;23.404;2023-03-04T09:36:13;22.67;;;13.15;;
77701;SDS011;66868;42.708;23.404;2023-03-04T09:38:39;22.73;;;12.80;;
77701;SDS011;66868;42.708;23.404;2023-03-04T09:41:11;16.30;;;12.32;;
77701;SDS011;66868;42.708;23.404;2023-03-04T09:43:40;17.67;;;11.18;;
77701;SDS011;66868;42.708;23.404;2023-03-04T09:46:12;18.67;;;12.23;;
77701;SDS011;66868;42.708;23.404;2023-03-04T09:48:44;16.08;;;12.10;;
77701;SDS011;66868;42.708;23.404;2023-03-04T09:56:41;17.42;;;11.77;;
77701;SDS011;66868;42.708;23.404;2023-03-04T10:01:48;19.50;;;11.90;;
77701;SDS011;66868;42.708;23.404;2023-03-04T10:04:39;14.38;;;11.13;;
77701;SDS011;66868;42.708;23.404;2023-03-04T10:07:18;15.85;;;11.07;;
77701;SDS011;66868;42.708;23.404;2023-03-04T10:10:09;18.80;;;11.73;;
77701;SDS011;66868;42.708;23.404;2023-03-04T10:12:52;23.00;;;12.07;;
77701;SDS011;66868;42.708;23.404;2023-03-04T10:15:25;15.90;;;10.85;;
77701;SDS011;66868;42.708;23.404;2023-03-04T10:17:59;26.63;;;14.18;;
77701;SDS011;66868;42.708;23.404;2023-03-04T10:20:32;23.90;;;13.15;;
77701;SDS011;66868;42.708;23.404;2023-03-04T10:23:18;16.38;;;10.20;;
77701;SDS011;66868;42.708;23.404;2023-03-04T10:25:47;15.75;;;9.75;;
77701;SDS011;66868;42.708;23.404;2023-03-04T10:28:19;21.45;;;10.98;;
77701;SDS011;66868;42.708;23.404;2023-03-04T10:33:38;17.00;;;11.90;;
77701;SDS011;66868;42.708;23.404;2023-03-04T10:38:51;19.20;;;12.52;;
77701;SDS011;66868;42.708;23.404;2023-03-04T10:41:22;17.55;;;11.43;;
77701;SDS011;66868;42.708;23.404;2023-03-04T10:46:27;19.92;;;11.80;;
77701;SDS011;66868;42.708;23.404;2023-03-04T10:48:53;19.70;;;11.00;;
77701;SDS011;66868;42.708;23.404;2023-03-04T10:51:20;16.52;;;11.60;;
77701;SDS011;66868;42.708;23.404;2023-03-04T10:53:55;18.80;;;11.55;;
77701;SDS011;66868;42.708;23.404;2023-03-04T11:04:47;15.82;;;11.45;;
77701;SDS011;66868;42.708;23.404;2023-03-04T11:07:45;12.95;;;10.25;;
77701;SDS011;66868;42.708;23.404;2023-03-04T11:10:24;21.67;;;11.63;;
77701;SDS011;66868;42.708;23.404;2023-03-04T11:12:55;19.40;;;11.68;;
77701;SDS011;66868;42.708;23.404;2023-03-04T11:15:26;19.05;;;12.65;;
77701;SDS011;66868;42.708;23.404;2023-03-04T11:17:53;19.92;;;12.30;;
77701;SDS011;66868;42.708;23.404;2023-03-04T11:20:36;17.88;;;11.80;;
77701;SDS011;66868;42.708;23.404;2023-03-04T11:23:10;20.73;;;11.68;;
77701;SDS011;66868;42.708;23.404;2023-03-04T11:25:44;15.07;;;11.18;;
77701;SDS011;66868;42.708;23.404;2023-03-04T11:28:16;16.02;;;10.50;;
77701;SDS011;66868;42.708;23.404;2023-03-04T11:31:02;18.48;;;11.45;;
77701;SDS011;66868;42.708;23.404;2023-03-04T11:38:55;33.85;;;16.83;;
77701;SDS011;66868;42.708;23.404;2023-03-04T11:41:24;38.63;;;20.30;;
77701;SDS011;66868;42.708;23.404;2023-03-04T11:43:56;21.67;;;13.57;;
77701;SDS011;66868;42.708;23.404;2023-03-04T11:46:32;16.30;;;11.40;;
77701;SDS011;66868;42.708;23.404;2023-03-04T12:02:28;19.65;;;12.43;;
77701;SDS011;66868;42.708;23.404;2023-03-04T12:05:21;17.73;;;12.43;;
77701;SDS011;66868;42.708;23.404;2023-03-04T12:08:02;18.75;;;12.15;;
77701;SDS011;66868;42.708;23.404;2023-03-04T12:10:32;20.52;;;14.10;;
77701;SDS011;66868;42.708;23.404;2023-03-04T12:15:57;21.13;;;12.30;;
77701;SDS011;66868;42.708;23.404;2023-03-04T12:46:21;18.08;;;12.90;;
77701;SDS011;66868;42.708;23.404;2023-03-04T12:49:09;20.38;;;13.75;;
77701;SDS011;66868;42.708;23.404;2023-03-04T12:56:45;29.02;;;17.13;;
77701;SDS011;66868;42.708;23.404;2023-03-04T12:59:21;27.65;;;15.90;;
77701;SDS011;66868;42.708;23.404;2023-03-04T13:09:57;27.05;;;15.48;;
77701;SDS011;66868;42.708;23.404;2023-03-04T13:12:40;24.25;;;14.23;;
77701;SDS011;66868;42.708;23.404;2023-03-04T13:20:24;22.23;;;14.90;;
77701;SDS011;66868;42.708;23.404;2023-03-04T13:43:48;26.95;;;17.83;;
77701;SDS011;66868;42.708;23.404;2023-03-04T13:51:16;24.35;;;15.10;;
77701;SDS011;66868;42.708;23.404;2023-03-04T13:59:26;23.25;;;14.43;;
77701;SDS011;66868;42.708;23.404;2023-03-04T14:04:46;28.38;;;15.23;;
77701;SDS011;66868;42.708;23.404;2023-03-04T14:07:26;28.33;;;15.38;;
77701;SDS011;66868;42.708;23.404;2023-03-04T14:09:57;24.40;;;14.15;;
77701;SDS011;66868;42.708;23.404;2023-03-04T14:12:25;21.58;;;15.10;;
77701;SDS011;66868;42.708;23.404;2023-03-04T14:14:59;31.27;;;14.75;;
77701;SDS011;66868;42.708;23.404;2023-03-04T14:17:37;21.25;;;14.15;;
77701;SDS011;66868;42.708;23.404;2023-03-04T14:20:05;23.55;;;15.88;;
77701;SDS011;66868;42.708;23.404;2023-03-04T14:22:48;24.98;;;15.38;;
77701;SDS011;66868;42.708;23.404;2023-03-04T14:25:22;24.38;;;14.32;;
77701;SDS011;66868;42.708;23.404;2023-03-04T14:27:49;20.90;;;14.45;;
77701;SDS011;66868;42.708;23.404;2023-03-04T14:30:26;21.52;;;14.02;;
77701;SDS011;66868;42.708;23.404;2023-03-04T14:32:52;20.45;;;13.93;;
77701;SDS011;66868;42.708;23.404;2023-03-04T14:35:29;19.42;;;14.30;;
77701;SDS011;66868;42.708;23.404;2023-03-04T14:43:59;20.65;;;13.23;;
77701;SDS011;66868;42.708;23.404;2023-03-04T14:46:29;28.40;;;14.13;;
77701;SDS011;66868;42.708;23.404;2023-03-04T14:48:57;23.95;;;14.07;;
77701;SDS011;66868;42.708;23.404;2023-03-04T14:51:44;28.00;;;14.93;;
77701;SDS011;66868;42.708;23.404;2023-03-04T14:56:50;22.25;;;14.45;;
77701;SDS011;66868;42.708;23.404;2023-03-04T14:59:16;17.40;;;13.10;;
77701;SDS011;66868;42.708;23.404;2023-03-04T15:01:41;21.80;;;14.35;;
77701;SDS011;66868;42.708;23.404;2023-03-04T15:04:09;19.92;;;14.20;;
77701;SDS011;66868;42.708;23.404;2023-03-04T15:06:37;20.38;;;13.57;;
77701;SDS011;66868;42.708;23.404;2023-03-04T15:09:20;22.80;;;13.15;;
77701;SDS011;66868;42.708;23.404;2023-03-04T15:11:48;20.38;;;13.45;;
77701;SDS011;66868;42.708;23.404;2023-03-04T15:17:18;29.20;;;14.38;;
77701;SDS011;66868;42.708;23.404;2023-03-04T15:19:56;22.50;;;13.15;;
77701;SDS011;66868;42.708;23.404;2023-03-04T15:22:23;18.55;;;13.07;;
77701;SDS011;66868;42.708;23.404;2023-03-04T15:24:48;18.00;;;13.18;;
77701;SDS011;66868;42.708;23.404;2023-03-04T15:27:14;20.58;;;14.18;;
77701;SDS011;66868;42.708;23.404;2023-03-04T15:29:41;18.70;;;13.63;;
77701;SDS011;66868;42.708;23.404;2023-03-04T15:32:08;18.83;;;13.90;;
77701;SDS011;66868;42.708;23.404;2023-03-04T15:34:34;19.65;;;13.25;;
77701;SDS011;66868;42.708;23.404;2023-03-04T15:37:00;52.85;;;14.75;;
77701;SDS011;66868;42.708;23.404;2023-03-04T15:39:26;24.52;;;14.35;;
77701;SDS011;66868;42.708;23.404;2023-03-04T15:41:51;22.13;;;14.80;;
77701;SDS011;66868;42.708;23.404;2023-03-04T15:44:17;22.42;;;14.57;;
77701;SDS011;66868;42.708;23.404;2023-03-04T15:46:42;30.42;;;18.08;;
77701;SDS011;66868;42.708;23.404;2023-03-04T15:49:08;91.65;;;38.08;;
77701;SDS011;66868;42.708;23.404;2023-03-04T15:51:33;86.75;;;37.08;;
77701;SDS011;66868;42.708;23.404;2023-03-04T15:53:59;62.80;;;30.73;;
77701;SDS011;66868;42.708;23.404;2023-03-04T15:56:29;48.03;;;26.20;;
77701;SDS011;66868;42.708;23.404;2023-03-04T15:58:58;42.63;;;23.27;;
77701;SDS011;66868;42.708;23.404;2023-03-04T16:01:34;35.47;;;22.08;;
77701;SDS011;66868;42.708;23.404;2023-03-04T16:03:59;40.78;;;24.20;;
77701;SDS011;66868;42.708;23.404;2023-03-04T16:06:26;52.78;;;28.73;;
77701;SDS011;66868;42.708;23.404;2023-03-04T16:08:54;43.53;;;23.10;;
77701;SDS011;66868;42.708;23.404;2023-03-04T16:11:20;42.60;;;23.25;;
77701;SDS011;66868;42.708;23.404;2023-03-04T16:13:48;45.83;;;24.73;;
77701;SDS011;66868;42.708;23.404;2023-03-04T16:16:14;56.90;;;27.63;;
77701;SDS011;66868;42.708;23.404;2023-03-04T16:18:40;128.25;;;49.15;;
77701;SDS011;66868;42.708;23.404;2023-03-04T16:21:06;102.40;;;42.15;;
77701;SDS011;66868;42.708;23.404;2023-03-04T16:23:40;79.55;;;38.42;;
77701;SDS011;66868;42.708;23.404;2023-03-04T16:26:11;86.45;;;37.78;;
77701;SDS011;66868;42.708;23.404;2023-03-04T16:28:38;93.78;;;40.75;;
77701;SDS011;66868;42.708;23.404;2023-03-04T16:31:04;90.82;;;43.40;;
77701;SDS011;66868;42.708;23.404;2023-03-04T16:33:30;87.30;;;40.25;;